sensor_id;sensor_type;location;lat;lon;timestamp;pressure;altitude;pressure_sealevel;temperature;humidity
2036;BME280;23642;42.658;23.350;2022-10-16T00:00:42;53944.38;;;-146.31;99.88
2036;BME280;23642;42.658;23.350;2022-10-16T00:03:09;53903.09;;;-146.31;100.00
2036;BME280;23642;42.658;23.350;2022-10-16T00:05:40;53870.06;;;-146.31;100.00
2036;BME280;23642;42.658;23.350;2022-10-16T00:08:08;53801.91;;;-146.31;100.00
2036;BME280;23642;42.658;23.350;2022-10-16T00:10:35;53752.38;;;-146.31;100.00
2036;BME280;23642;42.658;23.350;2022-10-16T00:13:02;53692.50;;;-146.31;100.00
2036;BME280;23642;42.658;23.350;2022-10-16T00:15:32;53636.78;;;-146.31;100.00
2036;BME280;23642;42.658;23.350;2022-10-16T00:17:59;53624.38;;;-146.31;100.00
2036;BME280;23642;42.658;23.350;2022-10-16T00:20:26;53558.31;;;-146.31;100.00
2036;BME280;23642;42.658;23.350;2022-10-16T00:22:52;53500.53;;;-146.31;100.00
2036;BME280;23642;42.658;23.350;2022-10-16T00:25:19;53453.06;;;-146.31;100.00
2036;BME280;23642;42.658;23.350;2022-10-16T00:27:46;53403.50;;;-146.31;100.00
2036;BME280;23642;42.658;23.350;2022-10-16T00:30:16;53347.78;;;-146.31;100.00
2036;BME280;23642;42.658;23.350;2022-10-16T00:32:44;53318.88;;;-146.31;100.00
2036;BME280;23642;42.658;23.350;2022-10-16T00:35:11;53252.81;;;-146.31;100.00
2036;BME280;23642;42.658;23.350;2022-10-16T00:37:37;53217.72;;;-146.31;100.00
2036;BME280;23642;42.658;23.350;2022-10-16T00:40:05;53184.72;;;-146.31;100.00
2036;BME280;23642;42.658;23.350;2022-10-16T00:42:32;53149.63;;;-146.31;100.00
2036;BME280;23642;42.658;23.350;2022-10-16T00:44:59;53104.22;;;-146.31;100.00
2036;BME280;23642;42.658;23.350;2022-10-16T00:47:28;53075.31;;;-146.31;100.00
2036;BME280;23642;42.658;23.350;2022-10-16T00:50:02;53023.72;;;-146.31;100.00
2036;BME280;23642;42.658;23.350;2022-10-16T00:52:31;53003.06;;;-146.31;100.00
2036;BME280;23642;42.658;23.350;2022-10-16T00:54:58;52945.28;;;-146.31;100.00
2036;BME280;23642;42.658;23.350;2022-10-16T00:57:25;52965.94;;;-146.31;100.00
2036;BME280;23642;42.658;23.350;2022-10-16T00:59:53;52957.66;;;-146.31;100.00
2036;BME280;23642;42.658;23.350;2022-10-16T01:02:20;52920.53;;;-146.31;100.00
2036;BME280;23642;42.658;23.350;2022-10-16T01:04:49;52928.78;;;-146.31;100.00
2036;BME280;23642;42.658;23.350;2022-10-16T01:07:27;52899.88;;;-146.31;100.00
2036;BME280;23642;42.658;23.350;2022-10-16T01:10:07;52879.25;;;-146.31;100.00
2036;BME280;23642;42.658;23.350;2022-10-16T01:12:40;52873.06;;;-146.31;100.00
2036;BME280;23642;42.658;23.350;2022-10-16T01:15:13;52829.72;;;-146.31;100.00
2036;BME280;23642;42.658;23.350;2022-10-16T01:17:45;52815.25;;;-146.31;100.00
2036;BME280;23642;42.658;23.350;2022-10-16T01:20:20;52767.78;;;-146.31;100.00
2036;BME280;23642;42.658;23.350;2022-10-16T01:23:01;52757.47;;;-146.31;100.00
2036;BME280;23642;42.658;23.350;2022-10-16T01:25:39;52683.19;;;-146.31;100.00
2036;BME280;23642;42.658;23.350;2022-10-16T01:28:15;52674.94;;;-146.31;100.00
2036;BME280;23642;42.658;23.350;2022-10-16T01:30:44;52637.78;;;-146.31;100.00
2036;BME280;23642;42.658;23.350;2022-10-16T01:33:17;52575.88;;;-146.31;100.00
2036;BME280;23642;42.658;23.350;2022-10-16T01:35:48;52553.16;;;-146.31;100.00
2036;BME280;23642;42.658;23.350;2022-10-16T01:38:21;52532.53;;;-146.31;100.00
2036;BME280;23642;42.658;23.350;2022-10-16T01:40:52;52491.25;;;-146.31;100.00
2036;BME280;23642;42.658;23.350;2022-10-16T01:43:25;52443.78;;;-146.31;100.00
2036;BME280;23642;42.658;23.350;2022-10-16T01:45:54;52439.66;;;-146.31;100.00
2036;BME280;23642;42.658;23.350;2022-10-16T01:48:22;52392.19;;;-146.31;100.00
2036;BME280;23642;42.658;23.350;2022-10-16T01:50:53;52377.75;;;-146.31;100.00
2036;BME280;23642;42.658;23.350;2022-10-16T01:53:22;52326.16;;;-146.31;100.00
2036;BME280;23642;42.658;23.350;2022-10-16T01:55:52;52342.69;;;-146.31;100.00
2036;BME280;23642;42.658;23.350;2022-10-16T01:58:23;52276.66;;;-146.31;100.00
2036;BME280;23642;42.658;23.350;2022-10-16T02:00:52;52319.97;;;-146.31;100.00
2036;BME280;23642;42.658;23.350;2022-10-16T02:03:21;52264.25;;;-146.31;100.00
2036;BME280;23642;42.658;23.350;2022-10-16T02:05:51;52210.63;;;-146.31;100.00
2036;BME280;23642;42.658;23.350;2022-10-16T02:08:21;52140.44;;;-146.31;100.00
2036;BME280;23642;42.658;23.350;2022-10-16T02:10:49;52093.00;;;-146.31;100.00
2036;BME280;23642;42.658;23.350;2022-10-16T02:13:17;52111.56;;;-146.31;100.00
2036;BME280;23642;42.658;23.350;2022-10-16T02:15:49;52117.75;;;-146.31;100.00
2036;BME280;23642;42.658;23.350;2022-10-16T02:18:16;52146.66;;;-146.31;100.00
2036;BME280;23642;42.658;23.350;2022-10-16T02:20:47;52152.84;;;-146.31;100.00
2036;BME280;23642;42.658;23.350;2022-10-16T02:23:23;52175.53;;;-146.31;100.00
2036;BME280;23642;42.658;23.350;2022-10-16T02:25:53;52198.22;;;-146.31;100.00
2036;BME280;23642;42.658;23.350;2022-10-16T02:28:25;52192.03;;;-146.31;100.00
2036;BME280;23642;42.658;23.350;2022-10-16T02:30:58;52198.22;;;-146.31;100.00
2036;BME280;23642;42.658;23.350;2022-10-16T02:33:27;52173.47;;;-146.31;100.00
2036;BME280;23642;42.658;23.350;2022-10-16T02:35:56;52163.16;;;-146.31;100.00
2036;BME280;23642;42.658;23.350;2022-10-16T02:38:24;52183.78;;;-146.31;100.00
2036;BME280;23642;42.658;23.350;2022-10-16T02:40:52;52152.84;;;-146.31;100.00
2036;BME280;23642;42.658;23.350;2022-10-16T02:43:21;52152.84;;;-146.31;100.00
2036;BME280;23642;42.658;23.350;2022-10-16T02:45:50;52132.19;;;-146.31;100.00
2036;BME280;23642;42.658;23.350;2022-10-16T02:48:18;52076.50;;;-146.31;100.00
2036;BME280;23642;42.658;23.350;2022-10-16T02:50:45;52088.88;;;-146.31;100.00
2036;BME280;23642;42.658;23.350;2022-10-16T02:53:12;52119.81;;;-146.31;100.00
2036;BME280;23642;42.658;23.350;2022-10-16T02:55:42;52152.84;;;-146.31;100.00
2036;BME280;23642;42.658;23.350;2022-10-16T02:58:09;52097.13;;;-146.31;100.00
2036;BME280;23642;42.658;23.350;2022-10-16T03:00:37;52066.16;;;-146.31;100.00
2036;BME280;23642;42.658;23.350;2022-10-16T03:03:04;52049.66;;;-146.31;100.00
2036;BME280;23642;42.658;23.350;2022-10-16T03:05:32;52045.53;;;-146.31;100.00
2036;BME280;23642;42.658;23.350;2022-10-16T03:07:59;52041.41;;;-146.31;100.00
2036;BME280;23642;42.658;23.350;2022-10-16T03:10:26;52099.19;;;-146.31;100.00
2036;BME280;23642;42.658;23.350;2022-10-16T03:12:53;52062.03;;;-146.31;100.00
2036;BME280;23642;42.658;23.350;2022-10-16T03:15:19;52029.03;;;-146.31;100.00
2036;BME280;23642;42.658;23.350;2022-10-16T03:17:46;52035.22;;;-146.31;100.00
2036;BME280;23642;42.658;23.350;2022-10-16T03:20:13;52029.03;;;-146.31;100.00
2036;BME280;23642;42.658;23.350;2022-10-16T03:22:42;51987.75;;;-146.31;100.00
2036;BME280;23642;42.658;23.350;2022-10-16T03:25:08;51946.50;;;-146.31;100.00
2036;BME280;23642;42.658;23.350;2022-10-16T03:27:35;51942.38;;;-146.31;100.00
2036;BME280;23642;42.658;23.350;2022-10-16T03:30:02;51915.53;;;-146.31;100.00
2036;BME280;23642;42.658;23.350;2022-10-16T03:32:29;51954.75;;;-146.31;100.00
2036;BME280;23642;42.658;23.350;2022-10-16T03:34:56;51919.69;;;-146.31;100.00
2036;BME280;23642;42.658;23.350;2022-10-16T03:37:23;51901.09;;;-146.31;100.00
2036;BME280;23642;42.658;23.350;2022-10-16T03:39:51;51915.53;;;-146.31;100.00
2036;BME280;23642;42.658;23.350;2022-10-16T03:42:18;51901.09;;;-146.31;100.00
2036;BME280;23642;42.658;23.350;2022-10-16T03:44:45;51804.13;;;-146.31;100.00
2036;BME280;23642;42.658;23.350;2022-10-16T03:47:12;51781.44;;;-146.31;100.00
2036;BME280;23642;42.658;23.350;2022-10-16T03:49:40;51764.94;;;-146.31;100.00
2036;BME280;23642;42.658;23.350;2022-10-16T03:52:07;51736.03;;;-146.31;100.00
2036;BME280;23642;42.658;23.350;2022-10-16T03:54:34;51707.16;;;-146.31;100.00
2036;BME280;23642;42.658;23.350;2022-10-16T03:57:02;51707.16;;;-146.31;100.00
2036;BME280;23642;42.658;23.350;2022-10-16T03:59:29;51674.16;;;-146.31;100.00
2036;BME280;23642;42.658;23.350;2022-10-16T04:01:56;51665.91;;;-146.31;100.00
2036;BME280;23642;42.658;23.350;2022-10-16T04:04:22;51649.41;;;-146.31;100.00
2036;BME280;23642;42.658;23.350;2022-10-16T04:06:50;51604.00;;;-146.31;100.00
2036;BME280;23642;42.658;23.350;2022-10-16T04:09:17;51546.25;;;-146.31;100.00
2036;BME280;23642;42.658;23.350;2022-10-16T04:11:43;51538.00;;;-146.31;100.00
2036;BME280;23642;42.658;23.350;2022-10-16T04:14:12;51494.66;;;-146.31;100.00
2036;BME280;23642;42.658;23.350;2022-10-16T04:16:38;51459.59;;;-146.31;100.00
2036;BME280;23642;42.658;23.350;2022-10-16T04:19:05;51445.16;;;-146.31;100.00
2036;BME280;23642;42.658;23.350;2022-10-16T04:21:32;51420.41;;;-146.31;100.00
2036;BME280;23642;42.658;23.350;2022-10-16T04:23:58;51420.41;;;-146.31;100.00
2036;BME280;23642;42.658;23.350;2022-10-16T04:26:25;51408.00;;;-146.31;100.00
2036;BME280;23642;42.658;23.350;2022-10-16T04:28:52;51412.16;;;-146.31;100.00
2036;BME280;23642;42.658;23.350;2022-10-16T04:31:21;51405.94;;;-146.31;100.00
2036;BME280;23642;42.658;23.350;2022-10-16T04:33:47;51383.25;;;-146.31;100.00
2036;BME280;23642;42.658;23.350;2022-10-16T04:36:14;51375.00;;;-146.31;100.00
2036;BME280;23642;42.658;23.350;2022-10-16T04:38:41;51356.44;;;-146.31;100.00
2036;BME280;23642;42.658;23.350;2022-10-16T04:41:08;51344.06;;;-146.31;100.00
2036;BME280;23642;42.658;23.350;2022-10-16T04:43:35;51311.06;;;-146.31;100.00
2036;BME280;23642;42.658;23.350;2022-10-16T04:46:03;51259.47;;;-146.31;100.00
2036;BME280;23642;42.658;23.350;2022-10-16T04:48:32;51271.88;;;-146.31;100.00
2036;BME280;23642;42.658;23.350;2022-10-16T04:51:00;51228.53;;;-146.31;100.00
2036;BME280;23642;42.658;23.350;2022-10-16T04:53:27;51207.91;;;-146.31;100.00
2036;BME280;23642;42.658;23.350;2022-10-16T04:55:54;51164.59;;;-146.31;100.00
2036;BME280;23642;42.658;23.350;2022-10-16T04:58:22;51121.28;;;-146.31;100.00
2036;BME280;23642;42.658;23.350;2022-10-16T05:00:49;51084.16;;;-146.31;100.00
2036;BME280;23642;42.658;23.350;2022-10-16T05:03:16;51030.50;;;-146.31;100.00
2036;BME280;23642;42.658;23.350;2022-10-16T05:05:44;50991.31;;;-146.31;100.00
2036;BME280;23642;42.658;23.350;2022-10-16T05:08:12;50917.06;;;-146.31;100.00
2036;BME280;23642;42.658;23.350;2022-10-16T05:10:40;50912.94;;;-146.31;100.00
2036;BME280;23642;42.658;23.350;2022-10-16T05:13:08;50832.50;;;-146.31;100.00
2036;BME280;23642;42.658;23.350;2022-10-16T05:15:35;50799.50;;;-146.31;100.00
2036;BME280;23642;42.658;23.350;2022-10-16T05:18:02;50768.56;;;-146.31;100.00
2036;BME280;23642;42.658;23.350;2022-10-16T05:20:29;50737.63;;;-146.31;100.00
2036;BME280;23642;42.658;23.350;2022-10-16T05:22:57;50669.56;;;-146.31;100.00
2036;BME280;23642;42.658;23.350;2022-10-16T05:25:24;50679.88;;;-146.31;100.00
2036;BME280;23642;42.658;23.350;2022-10-16T05:27:50;50655.13;;;-146.31;100.00
2036;BME280;23642;42.658;23.350;2022-10-16T05:30:18;50615.94;;;-146.31;100.00
2036;BME280;23642;42.658;23.350;2022-10-16T05:32:46;50593.25;;;-146.31;100.00
2036;BME280;23642;42.658;23.350;2022-10-16T05:35:15;50589.13;;;-146.31;100.00
2036;BME280;23642;42.658;23.350;2022-10-16T05:37:41;50556.13;;;-146.31;100.00
2036;BME280;23642;42.658;23.350;2022-10-16T05:40:11;50533.44;;;-146.31;100.00
2036;BME280;23642;42.658;23.350;2022-10-16T05:42:38;50527.25;;;-146.31;100.00
2036;BME280;23642;42.658;23.350;2022-10-16T05:45:06;50477.75;;;-146.31;100.00
2036;BME280;23642;42.658;23.350;2022-10-16T05:47:33;50494.25;;;-146.31;100.00
2036;BME280;23642;42.658;23.350;2022-10-16T05:50:00;50533.44;;;-146.31;100.00
2036;BME280;23642;42.658;23.350;2022-10-16T05:52:27;50564.38;;;-146.31;100.00
2036;BME280;23642;42.658;23.350;2022-10-16T05:54:54;50601.50;;;-146.31;100.00
2036;BME280;23642;42.658;23.350;2022-10-16T05:57:22;50609.75;;;-146.31;100.00
2036;BME280;23642;42.658;23.350;2022-10-16T05:59:48;50630.38;;;-146.31;100.00
2036;BME280;23642;42.658;23.350;2022-10-16T06:02:15;50601.50;;;-146.31;100.00
2036;BME280;23642;42.658;23.350;2022-10-16T06:04:42;50618.00;;;-146.31;100.00
2036;BME280;23642;42.658;23.350;2022-10-16T06:07:09;50589.13;;;-146.31;100.00
2036;BME280;23642;42.658;23.350;2022-10-16T06:09:36;50597.38;;;-146.31;100.00
2036;BME280;23642;42.658;23.350;2022-10-16T06:12:03;50620.06;;;-146.31;100.00
2036;BME280;23642;42.658;23.350;2022-10-16T06:14:31;50595.31;;;-146.31;100.00
2036;BME280;23642;42.658;23.350;2022-10-16T06:16:57;50630.38;;;-146.31;100.00
2036;BME280;23642;42.658;23.350;2022-10-16T06:19:24;50646.88;;;-146.31;100.00
2036;BME280;23642;42.658;23.350;2022-10-16T06:21:51;50665.44;;;-146.31;100.00
2036;BME280;23642;42.658;23.350;2022-10-16T06:24:18;50760.31;;;-146.31;100.00
2036;BME280;23642;42.658;23.350;2022-10-16T06:26:44;50853.13;;;-146.31;100.00
2036;BME280;23642;42.658;23.350;2022-10-16T06:29:11;50919.13;;;-146.31;100.00
2036;BME280;23642;42.658;23.350;2022-10-16T06:31:42;50981.00;;;-146.31;100.00
2036;BME280;23642;42.658;23.350;2022-10-16T06:34:09;51236.78;;;-146.31;98.41
2036;BME280;23642;42.658;23.350;2022-10-16T06:36:37;51764.94;;;-146.31;93.10
2036;BME280;23642;42.658;23.350;2022-10-16T06:39:04;51940.31;;;-146.31;91.73
2036;BME280;23642;42.658;23.350;2022-10-16T06:41:32;52074.44;;;-146.31;91.43
2036;BME280;23642;42.658;23.350;2022-10-16T06:43:59;52156.97;;;-146.31;89.29
2036;BME280;23642;42.658;23.350;2022-10-16T06:46:27;52324.09;;;-146.31;86.79
2036;BME280;23642;42.658;23.350;2022-10-16T06:48:55;52355.06;;;-146.31;87.69
2036;BME280;23642;42.658;23.350;2022-10-16T06:51:23;52400.47;;;-146.31;87.44
2036;BME280;23642;42.658;23.350;2022-10-16T06:53:51;52412.84;;;-146.31;86.25
2036;BME280;23642;42.658;23.350;2022-10-16T06:56:20;52513.97;;;-146.31;84.82
2036;BME280;23642;42.658;23.350;2022-10-16T06:58:48;52546.97;;;-146.31;85.46
2036;BME280;23642;42.658;23.350;2022-10-16T07:01:16;52575.88;;;-146.31;85.36
2036;BME280;23642;42.658;23.350;2022-10-16T07:03:45;52610.94;;;-146.31;84.01
2036;BME280;23642;42.658;23.350;2022-10-16T07:06:15;52625.41;;;-146.31;83.44
2036;BME280;23642;42.658;23.350;2022-10-16T07:08:44;52685.25;;;-146.31;83.50
2036;BME280;23642;42.658;23.350;2022-10-16T07:11:13;52693.50;;;-146.31;83.39
2036;BME280;23642;42.658;23.350;2022-10-16T07:13:42;52677.00;;;-146.31;83.98
2036;BME280;23642;42.658;23.350;2022-10-16T07:16:10;52714.13;;;-146.31;82.87
2036;BME280;23642;42.658;23.350;2022-10-16T07:18:38;52714.13;;;-146.31;83.25
2036;BME280;23642;42.658;23.350;2022-10-16T07:21:06;52724.47;;;-146.31;82.57
2036;BME280;23642;42.658;23.350;2022-10-16T07:23:35;52736.84;;;-146.31;81.52
2036;BME280;23642;42.658;23.350;2022-10-16T07:26:03;52804.94;;;-146.31;81.26
2036;BME280;23642;42.658;23.350;2022-10-16T07:28:30;52759.53;;;-146.31;81.72
2036;BME280;23642;42.658;23.350;2022-10-16T07:31:00;52786.38;;;-146.31;81.37
2036;BME280;23642;42.658;23.350;2022-10-16T07:33:27;52788.44;;;-146.31;81.03
2036;BME280;23642;42.658;23.350;2022-10-16T07:35:54;52821.44;;;-146.31;81.00
2036;BME280;23642;42.658;23.350;2022-10-16T07:38:21;52802.88;;;-146.31;81.50
2036;BME280;23642;42.658;23.350;2022-10-16T07:40:56;52804.94;;;-146.31;81.08
2036;BME280;23642;42.658;23.350;2022-10-16T07:43:23;52815.25;;;-146.31;80.20
2036;BME280;23642;42.658;23.350;2022-10-16T07:45:50;52840.03;;;-146.31;81.28
2036;BME280;23642;42.658;23.350;2022-10-16T07:48:17;52821.44;;;-146.31;80.01
2036;BME280;23642;42.658;23.350;2022-10-16T07:50:44;52842.09;;;-146.31;79.24
2036;BME280;23642;42.658;23.350;2022-10-16T07:53:12;52887.50;;;-146.31;78.86
2036;BME280;23642;42.658;23.350;2022-10-16T07:55:38;52840.03;;;-146.31;79.70
2036;BME280;23642;42.658;23.350;2022-10-16T07:58:07;52871.00;;;-146.31;79.76
2036;BME280;23642;42.658;23.350;2022-10-16T08:00:36;52883.38;;;-146.31;78.90
2036;BME280;23642;42.658;23.350;2022-10-16T08:03:03;52908.13;;;-146.31;78.75
2036;BME280;23642;42.658;23.350;2022-10-16T08:05:32;52873.06;;;-146.31;77.67
2036;BME280;23642;42.658;23.350;2022-10-16T08:07:59;52881.31;;;-146.31;77.71
2036;BME280;23642;42.658;23.350;2022-10-16T08:10:27;52897.81;;;-146.31;77.57
2036;BME280;23642;42.658;23.350;2022-10-16T08:12:54;52945.28;;;-146.31;77.07
2036;BME280;23642;42.658;23.350;2022-10-16T08:15:22;52978.31;;;-146.31;76.33
2036;BME280;23642;42.658;23.350;2022-10-16T08:17:57;52937.03;;;-146.31;75.97
2036;BME280;23642;42.658;23.350;2022-10-16T08:20:24;52980.38;;;-146.31;75.18
2036;BME280;23642;42.658;23.350;2022-10-16T08:22:51;52972.13;;;-146.31;75.86
2036;BME280;23642;42.658;23.350;2022-10-16T08:25:18;52996.88;;;-146.31;74.45
2036;BME280;23642;42.658;23.350;2022-10-16T08:27:45;52945.28;;;-146.31;73.90
2036;BME280;23642;42.658;23.350;2022-10-16T08:30:12;53019.59;;;-146.31;73.14
2036;BME280;23642;42.658;23.350;2022-10-16T08:32:40;53042.28;;;-146.31;72.29
2036;BME280;23642;42.658;23.350;2022-10-16T08:35:08;52998.94;;;-146.31;72.64
2036;BME280;23642;42.658;23.350;2022-10-16T08:37:35;53040.22;;;-146.31;73.13
2036;BME280;23642;42.658;23.350;2022-10-16T08:40:06;53089.75;;;-146.31;70.76
2036;BME280;23642;42.658;23.350;2022-10-16T08:42:43;53157.88;;;-146.31;70.22
2036;BME280;23642;42.658;23.350;2022-10-16T08:45:21;53162.00;;;-146.31;70.59
2036;BME280;23642;42.658;23.350;2022-10-16T08:48:03;53215.66;;;-146.31;68.73
2036;BME280;23642;42.658;23.350;2022-10-16T08:50:35;53246.63;;;-146.31;67.98
2036;BME280;23642;42.658;23.350;2022-10-16T08:53:03;53254.88;;;-146.31;69.16
2036;BME280;23642;42.658;23.350;2022-10-16T08:55:34;53226.00;;;-146.31;68.50
2036;BME280;23642;42.658;23.350;2022-10-16T08:58:11;53296.16;;;-146.31;67.11
2036;BME280;23642;42.658;23.350;2022-10-16T09:00:39;53287.91;;;-146.31;68.28
2036;BME280;23642;42.658;23.350;2022-10-16T09:03:15;53345.72;;;-146.31;65.53
2036;BME280;23642;42.658;23.350;2022-10-16T09:05:54;53403.50;;;-146.31;64.25
2036;BME280;23642;42.658;23.350;2022-10-16T09:08:30;53434.47;;;-146.31;65.19
2036;BME280;23642;42.658;23.350;2022-10-16T09:11:05;53451.00;;;-146.31;64.35
2036;BME280;23642;42.658;23.350;2022-10-16T09:13:43;53459.25;;;-146.31;63.19
2036;BME280;23642;42.658;23.350;2022-10-16T09:16:19;53519.09;;;-146.31;62.90
2036;BME280;23642;42.658;23.350;2022-10-16T09:18:55;53564.53;;;-146.31;61.73
2036;BME280;23642;42.658;23.350;2022-10-16T09:21:26;53566.59;;;-146.31;63.68
2036;BME280;23642;42.658;23.350;2022-10-16T09:23:57;53574.84;;;-146.31;62.84
2036;BME280;23642;42.658;23.350;2022-10-16T09:26:24;53583.09;;;-146.31;60.88
2036;BME280;23642;42.658;23.350;2022-10-16T09:28:52;53649.16;;;-146.31;60.88
2036;BME280;23642;42.658;23.350;2022-10-16T09:31:21;53698.69;;;-146.31;60.48
2036;BME280;23642;42.658;23.350;2022-10-16T09:33:52;53682.19;;;-146.31;60.61
2036;BME280;23642;42.658;23.350;2022-10-16T09:36:21;53711.09;;;-146.31;60.90
2036;BME280;23642;42.658;23.350;2022-10-16T09:39:04;53686.31;;;-146.31;56.83
2036;BME280;23642;42.658;23.350;2022-10-16T09:41:34;53742.06;;;-146.31;54.93
2036;BME280;23642;42.658;23.350;2022-10-16T09:44:14;53758.56;;;-146.31;55.96
2036;BME280;23642;42.658;23.350;2022-10-16T09:46:43;53777.16;;;-146.31;55.72
2036;BME280;23642;42.658;23.350;2022-10-16T09:49:21;53795.72;;;-146.31;55.76
2036;BME280;23642;42.658;23.350;2022-10-16T09:51:49;53824.63;;;-146.31;54.33
2036;BME280;23642;42.658;23.350;2022-10-16T09:54:17;53791.59;;;-146.31;55.48
2036;BME280;23642;42.658;23.350;2022-10-16T09:56:45;53812.25;;;-146.31;54.56
2036;BME280;23642;42.658;23.350;2022-10-16T09:59:15;53812.25;;;-146.31;54.60
2036;BME280;23642;42.658;23.350;2022-10-16T10:01:46;53837.03;;;-146.31;55.02
2036;BME280;23642;42.658;23.350;2022-10-16T10:04:16;53824.63;;;-146.31;54.74
2036;BME280;23642;42.658;23.350;2022-10-16T10:06:46;53816.38;;;-146.31;54.80
2036;BME280;23642;42.658;23.350;2022-10-16T10:09:19;53799.84;;;-146.31;54.18
2036;BME280;23642;42.658;23.350;2022-10-16T10:11:50;53814.31;;;-146.31;53.27
2036;BME280;23642;42.658;23.350;2022-10-16T10:14:23;53870.06;;;-146.31;53.01
2036;BME280;23642;42.658;23.350;2022-10-16T10:16:52;53876.25;;;-146.31;52.41
2036;BME280;23642;42.658;23.350;2022-10-16T10:19:21;53894.81;;;-146.31;53.57
2036;BME280;23642;42.658;23.350;2022-10-16T10:21:50;53876.25;;;-146.31;54.45
2036;BME280;23642;42.658;23.350;2022-10-16T10:24:18;53903.09;;;-146.31;52.66
2036;BME280;23642;42.658;23.350;2022-10-16T10:26:57;53907.22;;;-146.31;51.99
2036;BME280;23642;42.658;23.350;2022-10-16T10:29:34;53931.97;;;-146.31;50.78
2036;BME280;23642;42.658;23.350;2022-10-16T10:32:14;53996.00;;;-146.31;50.12
2036;BME280;23642;42.658;23.350;2022-10-16T10:34:58;54029.03;;;-146.31;48.58
2036;BME280;23642;42.658;23.350;2022-10-16T10:37:43;54076.50;;;-146.31;49.18
2036;BME280;23642;42.658;23.350;2022-10-16T10:40:21;54076.50;;;-146.31;47.85
2036;BME280;23642;42.658;23.350;2022-10-16T10:42:55;54113.66;;;-146.31;48.01
2036;BME280;23642;42.658;23.350;2022-10-16T10:45:26;54119.88;;;-146.31;46.98
2036;BME280;23642;42.658;23.350;2022-10-16T10:48:06;54128.13;;;-146.31;47.54
2036;BME280;23642;42.658;23.350;2022-10-16T10:50:42;54068.25;;;-146.31;48.42
2036;BME280;23642;42.658;23.350;2022-10-16T10:53:21;54134.31;;;-146.31;48.76
2036;BME280;23642;42.658;23.350;2022-10-16T10:55:56;54090.97;;;-146.31;48.37
2036;BME280;23642;42.658;23.350;2022-10-16T10:58:56;54543.13;;;-146.31;43.66
2036;BME280;23642;42.658;23.350;2022-10-16T11:01:33;54638.13;;;-146.31;43.94
2036;BME280;23642;42.658;23.350;2022-10-16T11:04:20;54642.25;;;-146.31;45.63
2036;BME280;23642;42.658;23.350;2022-10-16T11:06:59;54640.19;;;-146.31;44.76
2036;BME280;23642;42.658;23.350;2022-10-16T11:09:33;54671.16;;;-146.31;42.91
2036;BME280;23642;42.658;23.350;2022-10-16T11:12:06;54745.50;;;-146.31;41.74
2036;BME280;23642;42.658;23.350;2022-10-16T11:14:38;54745.50;;;-146.31;41.67
2036;BME280;23642;42.658;23.350;2022-10-16T11:17:11;54770.28;;;-146.31;42.55
2036;BME280;23642;42.658;23.350;2022-10-16T11:19:42;54813.66;;;-146.31;41.51
2036;BME280;23642;42.658;23.350;2022-10-16T11:22:15;54850.81;;;-146.31;40.83
2036;BME280;23642;42.658;23.350;2022-10-16T11:24:46;54832.25;;;-146.31;41.47
2036;BME280;23642;42.658;23.350;2022-10-16T11:27:18;54848.75;;;-146.31;41.41
2036;BME280;23642;42.658;23.350;2022-10-16T11:29:58;54790.94;;;-146.31;41.82
2036;BME280;23642;42.658;23.350;2022-10-16T11:32:29;54854.94;;;-146.31;41.09
2036;BME280;23642;42.658;23.350;2022-10-16T11:35:02;54830.16;;;-146.31;41.70
2036;BME280;23642;42.658;23.350;2022-10-16T11:37:39;54805.38;;;-146.31;41.07
2036;BME280;23642;42.658;23.350;2022-10-16T11:40:21;54857.03;;;-146.31;40.19
2036;BME280;23642;42.658;23.350;2022-10-16T11:42:51;54881.78;;;-146.31;40.38
2036;BME280;23642;42.658;23.350;2022-10-16T11:45:27;54813.66;;;-146.31;40.93
2036;BME280;23642;42.658;23.350;2022-10-16T11:48:04;54811.59;;;-146.31;41.09
2036;BME280;23642;42.658;23.350;2022-10-16T11:50:38;54819.84;;;-146.31;41.46
2036;BME280;23642;42.658;23.350;2022-10-16T11:53:14;54811.59;;;-146.31;41.92
2036;BME280;23642;42.658;23.350;2022-10-16T11:55:45;54788.88;;;-146.31;42.34
2036;BME280;23642;42.658;23.350;2022-10-16T11:58:19;54778.53;;;-146.31;42.41
2036;BME280;23642;42.658;23.350;2022-10-16T12:00:55;54832.25;;;-146.31;41.37
2036;BME280;23642;42.658;23.350;2022-10-16T12:03:29;54809.53;;;-146.31;41.00
2036;BME280;23642;42.658;23.350;2022-10-16T12:06:25;54764.09;;;-146.31;42.81
2036;BME280;23642;42.658;23.350;2022-10-16T12:09:00;54768.22;;;-146.31;43.50
2036;BME280;23642;42.658;23.350;2022-10-16T12:11:35;54766.16;;;-146.31;43.87
2036;BME280;23642;42.658;23.350;2022-10-16T12:14:17;54739.31;;;-146.31;44.38
2036;BME280;23642;42.658;23.350;2022-10-16T12:16:53;54832.25;;;-146.31;41.62
2036;BME280;23642;42.658;23.350;2022-10-16T12:19:21;54848.75;;;-146.31;41.12
2036;BME280;23642;42.658;23.350;2022-10-16T12:21:50;54826.03;;;-146.31;41.21
2036;BME280;23642;42.658;23.350;2022-10-16T12:24:32;54890.06;;;-146.31;39.84
2036;BME280;23642;42.658;23.350;2022-10-16T12:27:01;54832.25;;;-146.31;40.78
2036;BME280;23642;42.658;23.350;2022-10-16T12:29:34;54803.31;;;-146.31;41.87
2036;BME280;23642;42.658;23.350;2022-10-16T12:32:04;54821.91;;;-146.31;41.23
2036;BME280;23642;42.658;23.350;2022-10-16T12:34:38;54834.31;;;-146.31;41.39
2036;BME280;23642;42.658;23.350;2022-10-16T12:37:13;54830.16;;;-146.31;41.33
2036;BME280;23642;42.658;23.350;2022-10-16T12:39:41;54826.03;;;-146.31;40.69
2036;BME280;23642;42.658;23.350;2022-10-16T12:42:31;54846.69;;;-146.31;41.48
2036;BME280;23642;42.658;23.350;2022-10-16T12:44:59;54842.56;;;-146.31;41.80
2036;BME280;23642;42.658;23.350;2022-10-16T12:47:37;54778.53;;;-146.31;42.06
2036;BME280;23642;42.658;23.350;2022-10-16T12:50:24;54828.09;;;-146.31;41.03